createdAt,value
2023-05-04T00:00:46.375Z,3.55
2023-05-04T00:03:14.586Z,3.70
2023-05-04T00:05:42.774Z,6.32
2023-05-04T00:08:12.629Z,4.55
2023-05-04T00:10:41.256Z,4.18
2023-05-04T00:13:09.386Z,5.00
2023-05-04T00:15:38.011Z,4.05
2023-05-04T00:18:06.077Z,4.60
2023-05-04T00:20:34.188Z,4.03
2023-05-04T00:23:02.703Z,4.03
2023-05-04T00:25:32.141Z,4.10
2023-05-04T00:28:00.659Z,5.78
2023-05-04T00:30:28.681Z,3.92
2023-05-04T00:32:56.754Z,4.65
2023-05-04T00:35:25.260Z,4.60
2023-05-04T00:37:53.778Z,5.75
2023-05-04T00:40:22.154Z,4.80
2023-05-04T00:42:52.024Z,4.72
2023-05-04T00:45:20.233Z,4.38
2023-05-04T00:47:49.816Z,4.55
2023-05-04T00:50:18.050Z,5.03
2023-05-04T00:52:48.355Z,4.80
2023-05-04T00:55:17.276Z,4.40
2023-05-04T00:57:45.716Z,7.47
2023-05-04T01:00:15.928Z,4.75
2023-05-04T01:02:44.150Z,5.57
2023-05-04T01:05:14.023Z,4.93
2023-05-04T01:07:53.072Z,4.72
2023-05-04T01:10:27.261Z,6.50
2023-05-04T01:13:02.481Z,5.93
2023-05-04T01:15:33.163Z,5.53
2023-05-04T01:18:01.370Z,5.18
2023-05-04T01:20:30.139Z,5.22
2023-05-04T01:23:00.604Z,5.55
2023-05-04T01:25:33.701Z,5.43
2023-05-04T01:28:10.170Z,5.18
2023-05-04T01:30:41.506Z,6.38
2023-05-04T01:33:10.153Z,5.50
2023-05-04T01:35:38.652Z,6.88
2023-05-04T01:38:08.667Z,5.32
2023-05-04T01:40:37.189Z,5.25
2023-05-04T01:43:05.277Z,5.13
2023-05-04T01:45:33.848Z,5.90
2023-05-04T01:48:01.950Z,5.68
2023-05-04T01:50:30.560Z,5.03
2023-05-04T01:52:58.603Z,5.55
2023-05-04T01:55:32.040Z,5.15
2023-05-04T01:58:00.651Z,5.10
2023-05-04T02:00:29.809Z,6.43
2023-05-04T02:02:57.971Z,5.07
2023-05-04T02:05:26.618Z,6.25
2023-05-04T02:07:55.127Z,5.10
2023-05-04T02:10:23.200Z,7.97
2023-05-04T02:12:53.232Z,5.35
2023-05-04T02:15:22.104Z,6.78
2023-05-04T02:17:50.812Z,5.60
2023-05-04T02:20:19.073Z,5.15
2023-05-04T02:22:47.585Z,7.65
2023-05-04T02:25:16.424Z,4.95
2023-05-04T02:27:44.512Z,5.30
2023-05-04T02:30:15.798Z,7.53
2023-05-04T02:32:44.382Z,5.07
2023-05-04T02:35:12.989Z,5.35
2023-05-04T02:37:41.023Z,6.15
2023-05-04T02:40:10.618Z,5.43
2023-05-04T02:42:38.692Z,5.88
2023-05-04T02:45:08.918Z,6.70
2023-05-04T02:47:38.893Z,4.50
2023-05-04T02:50:08.550Z,5.18
2023-05-04T02:52:37.445Z,4.93
2023-05-04T02:55:07.210Z,5.07
2023-05-04T02:57:35.249Z,6.20
2023-05-04T03:00:04.254Z,4.90
2023-05-04T03:02:32.971Z,4.97
2023-05-04T03:05:03.362Z,5.20
2023-05-04T03:07:31.480Z,5.40
2023-05-04T03:10:00.079Z,4.78
2023-05-04T03:12:28.710Z,4.97
2023-05-04T03:14:56.954Z,6.05
2023-05-04T03:17:25.037Z,5.25
2023-05-04T03:19:53.829Z,5.32
2023-05-04T03:22:23.259Z,7.28
2023-05-04T03:24:52.486Z,5.45
2023-05-04T03:27:20.530Z,6.55
2023-05-04T03:29:48.672Z,5.45
2023-05-04T03:32:17.450Z,5.30
2023-05-04T03:34:46.323Z,5.32
2023-05-04T03:37:14.850Z,5.57
2023-05-04T03:39:44.747Z,5.70
2023-05-04T03:42:13.172Z,4.97
2023-05-04T03:44:41.691Z,6.13
2023-05-04T03:47:10.231Z,6.20
2023-05-04T03:49:38.327Z,5.63
2023-05-04T03:52:06.764Z,6.30
2023-05-04T03:54:35.313Z,6.05
2023-05-04T03:57:04.742Z,6.70
2023-05-04T03:59:33.525Z,5.72
2023-05-04T04:02:01.740Z,5.72
2023-05-04T04:04:30.452Z,6.90
2023-05-04T04:06:58.550Z,6.05
2023-05-04T04:09:27.080Z,6.80
2023-05-04T04:11:55.627Z,6.82
2023-05-04T04:14:25.063Z,6.75
2023-05-04T04:16:53.638Z,6.80
2023-05-04T04:19:22.146Z,6.68
2023-05-04T04:21:50.290Z,7.95
2023-05-04T04:24:19.923Z,7.53
2023-05-04T04:26:48.136Z,8.05
2023-05-04T04:29:16.834Z,8.05
2023-05-04T04:31:46.307Z,8.33
2023-05-04T04:34:14.367Z,7.10
2023-05-04T04:36:42.500Z,7.47
2023-05-04T04:39:11.183Z,6.95
2023-05-04T04:41:39.486Z,9.48
2023-05-04T04:44:07.555Z,7.45
2023-05-04T04:46:36.131Z,8.95
2023-05-04T04:49:05.608Z,6.95
2023-05-04T04:51:34.430Z,8.30
2023-05-04T04:54:02.517Z,8.00
2023-05-04T04:56:31.385Z,8.00
2023-05-04T04:59:00.079Z,8.48
2023-05-04T05:01:29.795Z,7.90
2023-05-04T05:03:58.526Z,8.23
2023-05-04T05:06:27.958Z,7.53
2023-05-04T05:08:56.682Z,7.05
2023-05-04T05:11:24.716Z,6.20
2023-05-04T05:13:53.234Z,6.90
2023-05-04T05:16:22.039Z,6.45
2023-05-04T05:18:50.139Z,5.63
2023-05-04T05:21:18.669Z,6.07
2023-05-04T05:23:48.148Z,6.22
2023-05-04T05:26:16.716Z,6.30
2023-05-04T05:28:44.789Z,5.77
2023-05-04T05:31:13.323Z,6.93
2023-05-04T05:33:42.361Z,8.40
2023-05-04T05:36:11.187Z,7.55
2023-05-04T05:38:39.239Z,7.55
2023-05-04T05:41:10.202Z,7.00
2023-05-04T05:43:38.732Z,9.90
2023-05-04T05:46:08.000Z,6.75
2023-05-04T05:48:36.104Z,7.78
2023-05-04T05:51:04.738Z,7.50
2023-05-04T05:53:33.283Z,7.18
2023-05-04T05:56:01.331Z,6.80
2023-05-04T05:58:30.723Z,7.43
2023-05-04T06:00:58.796Z,9.02
2023-05-04T06:03:27.046Z,7.15
2023-05-04T06:05:55.812Z,7.95
2023-05-04T06:08:23.840Z,7.75
2023-05-04T06:10:52.639Z,7.82
2023-05-04T06:13:20.677Z,8.38
2023-05-04T06:15:54.642Z,7.93
2023-05-04T06:18:23.491Z,7.72
2023-05-04T06:20:58.361Z,8.25
2023-05-04T06:23:27.658Z,7.90
2023-05-04T06:25:56.128Z,7.35
2023-05-04T06:28:24.815Z,13.27
2023-05-04T06:30:54.729Z,7.32
2023-05-04T06:33:23.310Z,7.35
2023-05-04T06:35:51.921Z,7.60
2023-05-04T06:38:20.470Z,6.65
2023-05-04T06:40:48.697Z,6.13
2023-05-04T06:43:17.233Z,7.00
2023-05-04T06:45:45.342Z,6.40
2023-05-04T06:48:15.279Z,6.45
2023-05-04T06:50:43.911Z,19.30
2023-05-04T06:53:12.830Z,6.55
2023-05-04T06:55:41.477Z,6.75
2023-05-04T06:58:09.587Z,6.18
2023-05-04T07:00:38.376Z,7.90
2023-05-04T07:03:07.036Z,8.27
2023-05-04T07:05:37.686Z,6.28
2023-05-04T07:08:06.864Z,5.93
2023-05-04T07:10:34.946Z,6.15
2023-05-04T07:13:04.024Z,6.30
2023-05-04T07:15:34.270Z,6.18
2023-05-04T07:18:02.505Z,6.15
2023-05-04T07:20:31.121Z,7.15
2023-05-04T07:23:00.533Z,7.28
2023-05-04T07:25:28.993Z,6.97
2023-05-04T07:27:57.068Z,6.38
2023-05-04T07:30:26.166Z,8.20
2023-05-04T07:32:54.768Z,7.60
2023-05-04T07:35:23.463Z,8.48
2023-05-04T07:37:52.148Z,5.68
2023-05-04T07:40:21.620Z,6.05
2023-05-04T07:42:50.159Z,8.05
2023-05-04T07:45:18.655Z,6.72
2023-05-04T07:47:46.770Z,7.53
2023-05-04T07:50:15.453Z,5.38
2023-05-04T07:52:46.027Z,6.10
2023-05-04T07:55:14.561Z,5.25
2023-05-04T07:57:43.942Z,5.65
2023-05-04T08:00:13.574Z,5.97
2023-05-04T08:02:42.046Z,6.85
2023-05-04T08:05:11.300Z,5.13
2023-05-04T08:07:39.381Z,5.93
2023-05-04T08:10:09.286Z,4.38
2023-05-04T08:12:37.334Z,5.10
2023-05-04T08:15:08.028Z,4.88
2023-05-04T08:17:38.419Z,5.25
2023-05-04T08:20:08.129Z,5.35
2023-05-04T08:22:36.774Z,5.38
2023-05-04T08:25:05.283Z,6.20
2023-05-04T08:27:34.068Z,5.60
2023-05-04T08:30:02.239Z,4.70
2023-05-04T08:32:33.389Z,5.25
2023-05-04T08:35:02.146Z,5.22
2023-05-04T08:37:30.872Z,5.90
2023-05-04T08:39:58.955Z,4.95
2023-05-04T08:42:30.878Z,5.72
2023-05-04T08:44:59.368Z,5.07
2023-05-04T08:47:29.566Z,5.28
2023-05-04T08:49:59.053Z,5.32
2023-05-04T08:52:28.145Z,4.72
2023-05-04T08:54:57.615Z,5.00
2023-05-04T08:57:27.563Z,4.65
2023-05-04T08:59:56.925Z,4.28
2023-05-04T09:02:26.565Z,5.18
2023-05-04T09:04:56.150Z,6.78
2023-05-04T09:07:25.717Z,5.40
2023-05-04T09:09:54.620Z,6.10
2023-05-04T09:12:22.718Z,4.57
2023-05-04T09:14:51.390Z,4.95
2023-05-04T09:17:25.780Z,4.82
2023-05-04T09:20:01.538Z,5.55
2023-05-04T09:22:31.541Z,4.95
2023-05-04T09:25:09.145Z,5.00
2023-05-04T09:27:37.167Z,5.72
2023-05-04T09:30:06.399Z,4.38
2023-05-04T09:32:38.814Z,4.35
2023-05-04T09:35:10.766Z,4.65
2023-05-04T09:37:47.538Z,4.38
2023-05-04T09:40:15.954Z,4.65
2023-05-04T09:42:44.732Z,4.03
2023-05-04T09:45:13.700Z,4.93
2023-05-04T09:47:44.785Z,4.40
2023-05-04T09:50:20.129Z,4.22
2023-05-04T09:52:51.563Z,4.40
2023-05-04T09:55:21.466Z,3.83
2023-05-04T09:57:51.489Z,3.25
2023-05-04T10:00:20.937Z,3.42
2023-05-04T10:02:50.254Z,3.70
2023-05-04T10:05:22.139Z,7.55
2023-05-04T10:07:52.799Z,4.00
2023-05-04T10:10:21.334Z,3.60
2023-05-04T10:12:49.880Z,3.92
2023-05-04T10:15:19.199Z,5.38
2023-05-04T10:17:59.834Z,4.03
2023-05-04T10:20:54.081Z,4.57
2023-05-04T10:23:55.324Z,4.38
2023-05-04T10:26:48.702Z,3.95
2023-05-04T10:29:23.822Z,3.25
2023-05-04T10:31:53.889Z,3.33
2023-05-04T10:34:27.404Z,3.25
2023-05-04T10:36:55.686Z,3.38
2023-05-04T10:39:26.887Z,3.40
2023-05-04T10:42:02.885Z,3.20
2023-05-04T10:44:32.636Z,3.22
2023-05-04T10:47:02.508Z,4.57
2023-05-04T10:49:31.292Z,3.65
2023-05-04T10:52:10.820Z,3.08
2023-05-04T10:54:41.588Z,2.72
2023-05-04T10:57:11.782Z,3.05
2023-05-04T10:59:41.319Z,2.58
2023-05-04T11:02:10.042Z,2.80
2023-05-04T11:04:39.356Z,3.00
2023-05-04T11:07:08.864Z,3.92
2023-05-04T11:09:39.616Z,2.95
2023-05-04T11:12:11.048Z,3.90
2023-05-04T11:14:43.326Z,2.72
2023-05-04T11:19:51.636Z,2.58
2023-05-04T11:22:20.715Z,4.13
2023-05-04T11:24:50.225Z,2.70
2023-05-04T11:27:29.808Z,2.60
2023-05-04T11:29:59.439Z,3.75
2023-05-04T11:32:38.083Z,3.85
2023-05-04T11:35:10.043Z,2.75
2023-05-04T11:37:41.912Z,2.90
2023-05-04T11:40:13.739Z,2.58
2023-05-04T11:42:43.482Z,2.50
2023-05-04T11:45:15.191Z,3.40
2023-05-04T11:47:44.345Z,2.42
2023-05-04T11:50:15.087Z,3.25
2023-05-04T11:52:43.770Z,4.07
2023-05-04T11:55:15.155Z,2.10
2023-05-04T11:57:43.228Z,2.40
2023-05-04T12:00:12.650Z,2.05
2023-05-04T12:02:41.632Z,4.95
2023-05-04T12:05:14.506Z,1.92
2023-05-04T12:07:43.127Z,2.88
2023-05-04T12:10:12.675Z,3.47
2023-05-04T12:12:41.385Z,2.22
2023-05-04T12:15:11.305Z,3.83
2023-05-04T12:17:43.353Z,2.15
2023-05-04T12:20:12.265Z,2.72
2023-05-04T12:22:41.064Z,2.22
2023-05-04T12:25:11.243Z,2.30
2023-05-04T12:27:44.234Z,3.25
2023-05-04T12:30:13.486Z,2.25
2023-05-04T12:32:42.228Z,2.20
2023-05-04T12:35:11.525Z,2.28
2023-05-04T12:37:39.581Z,2.45
2023-05-04T12:40:27.231Z,1.83
2023-05-04T12:42:57.947Z,2.00
2023-05-04T12:45:26.487Z,3.10
2023-05-04T12:47:55.001Z,1.80
2023-05-04T12:50:23.751Z,3.40
2023-05-04T12:52:51.837Z,1.92
2023-05-04T12:55:20.452Z,2.40
2023-05-04T12:57:48.985Z,3.00
2023-05-04T13:00:19.729Z,2.00
2023-05-04T13:02:47.935Z,2.50
2023-05-04T13:05:17.390Z,1.80
2023-05-04T13:07:45.967Z,2.13
2023-05-04T13:10:14.509Z,1.77
2023-05-04T13:12:44.741Z,6.60
2023-05-04T13:15:14.712Z,1.60
2023-05-04T13:17:44.451Z,1.83
2023-05-04T13:20:13.885Z,1.70
2023-05-04T13:22:42.879Z,1.90
2023-05-04T13:25:11.580Z,2.25
2023-05-04T13:27:39.668Z,1.70
2023-05-04T13:30:09.627Z,2.15
2023-05-04T13:32:37.889Z,2.13
2023-05-04T13:35:09.099Z,2.08
2023-05-04T13:37:38.242Z,2.58
2023-05-04T13:40:07.230Z,1.75
2023-05-04T13:42:37.172Z,1.70
2023-05-04T13:45:06.821Z,1.45
2023-05-04T13:47:37.407Z,1.77
2023-05-04T13:50:07.964Z,1.90
2023-05-04T13:52:36.323Z,1.95
2023-05-04T13:55:05.422Z,2.03
2023-05-04T13:57:33.722Z,2.17
2023-05-04T14:00:07.699Z,3.50
2023-05-04T14:02:36.489Z,1.67
2023-05-04T14:05:05.380Z,1.80
2023-05-04T14:07:35.795Z,1.95
2023-05-04T14:10:04.713Z,1.60
2023-05-04T14:12:32.933Z,2.55
2023-05-04T14:15:01.426Z,2.67
2023-05-04T14:17:30.005Z,1.60
2023-05-04T14:19:59.007Z,1.65
2023-05-04T14:22:27.639Z,3.28
2023-05-04T14:24:57.233Z,2.25
2023-05-04T14:27:25.769Z,1.70
2023-05-04T14:29:54.406Z,1.50
2023-05-04T14:32:22.439Z,1.65
2023-05-04T14:34:51.650Z,1.88
2023-05-04T14:37:20.683Z,2.35
2023-05-04T14:39:48.827Z,2.47
2023-05-04T14:42:18.342Z,1.92
2023-05-04T14:44:46.848Z,1.92
2023-05-04T14:47:14.947Z,5.53
2023-05-04T14:49:43.470Z,1.58
2023-05-04T14:52:12.114Z,1.50
2023-05-04T14:54:40.147Z,1.73
2023-05-04T14:57:09.569Z,1.52
2023-05-04T14:59:40.190Z,3.50
2023-05-04T15:02:09.256Z,3.55
2023-05-04T15:04:37.617Z,8.57
2023-05-04T15:07:06.477Z,11.43
2023-05-04T15:09:35.039Z,8.02
2023-05-04T15:12:03.930Z,4.15
2023-05-04T15:14:31.973Z,3.67
2023-05-04T15:17:01.884Z,2.83
2023-05-04T15:19:30.397Z,2.47
2023-05-04T15:21:58.426Z,3.00
2023-05-04T15:24:26.939Z,2.35
2023-05-04T15:26:54.982Z,1.90
2023-05-04T15:29:23.748Z,2.95
2023-05-04T15:31:52.072Z,1.80
2023-05-04T15:34:22.061Z,2.47
2023-05-04T15:36:50.116Z,1.80
2023-05-04T15:39:18.616Z,2.10
2023-05-04T15:41:47.302Z,2.00
2023-05-04T15:44:15.360Z,3.13
2023-05-04T15:46:44.784Z,5.72
2023-05-04T15:49:13.374Z,5.03
2023-05-04T15:51:42.985Z,10.63
2023-05-04T15:54:11.486Z,12.27
2023-05-04T15:56:39.507Z,5.65
2023-05-04T15:59:08.177Z,3.72
2023-05-04T16:01:37.483Z,3.33
2023-05-04T16:04:06.528Z,2.65
2023-05-04T16:06:34.587Z,3.83
2023-05-04T16:09:04.572Z,2.42
2023-05-04T16:11:33.216Z,2.72
2023-05-04T16:14:01.774Z,2.33
2023-05-04T16:16:30.323Z,2.13
2023-05-04T16:18:58.951Z,3.25
2023-05-04T16:21:27.000Z,1.85
2023-05-04T16:23:55.617Z,2.63
2023-05-04T16:26:25.760Z,3.75
2023-05-04T16:28:53.977Z,1.60
2023-05-04T16:31:22.574Z,1.35
2023-05-04T16:33:50.657Z,2.35
2023-05-04T16:36:19.194Z,2.70
2023-05-04T16:38:49.851Z,3.63
2023-05-04T16:41:19.307Z,7.05
2023-05-04T16:43:49.100Z,6.38
2023-05-04T16:46:17.943Z,1.80
2023-05-04T16:48:46.015Z,6.00
2023-05-04T16:51:14.524Z,5.38
2023-05-04T16:53:42.572Z,7.38
2023-05-04T16:56:18.800Z,2.92
2023-05-04T16:58:48.291Z,4.20
2023-05-04T17:01:16.978Z,6.13
2023-05-04T17:03:45.640Z,2.17
2023-05-04T17:06:13.713Z,2.28
2023-05-04T17:08:41.832Z,2.70
2023-05-04T17:11:10.346Z,2.83
2023-05-04T17:13:38.951Z,2.22
2023-05-04T17:16:09.965Z,4.20
2023-05-04T17:18:38.022Z,1.63
2023-05-04T17:21:06.801Z,2.70
2023-05-04T17:23:35.118Z,2.78
2023-05-04T17:26:04.683Z,3.67
2023-05-04T17:28:32.765Z,2.35
2023-05-04T17:31:01.280Z,1.88
2023-05-04T17:33:30.908Z,2.05
2023-05-04T17:35:59.451Z,1.95
2023-05-04T17:38:27.520Z,1.80
2023-05-04T17:40:56.523Z,2.55
2023-05-04T17:43:24.618Z,1.40
2023-05-04T17:45:55.530Z,2.00
2023-05-04T17:48:24.546Z,1.98
2023-05-04T17:50:54.003Z,1.50
2023-05-04T17:53:22.069Z,1.63
2023-05-04T17:55:50.594Z,1.60
2023-05-04T17:58:18.640Z,2.08
2023-05-04T18:00:47.162Z,3.00
2023-05-04T18:03:15.284Z,2.55
2023-05-04T18:05:43.814Z,2.28
2023-05-04T18:08:13.834Z,1.80
2023-05-04T18:10:42.047Z,3.55
2023-05-04T18:13:10.634Z,2.25
2023-05-04T18:15:38.937Z,2.42
2023-05-04T18:18:08.539Z,1.42
2023-05-04T18:20:36.587Z,4.30
2023-05-04T18:23:06.173Z,2.40
2023-05-04T18:25:37.923Z,2.67
2023-05-04T18:28:08.381Z,2.58
2023-05-04T18:30:36.891Z,2.13
2023-05-04T18:33:05.070Z,3.15
2023-05-04T18:35:33.159Z,2.85
2023-05-04T18:38:01.319Z,2.55
2023-05-04T18:40:29.949Z,2.70
2023-05-04T18:42:59.372Z,2.95
2023-05-04T18:45:28.675Z,2.92
2023-05-04T18:47:56.707Z,2.47
2023-05-04T18:50:25.246Z,1.90
2023-05-04T18:52:54.117Z,2.00
2023-05-04T18:55:22.917Z,3.90
2023-05-04T18:57:51.568Z,2.15
2023-05-04T19:00:22.154Z,2.00
2023-05-04T19:02:51.158Z,1.88
2023-05-04T19:05:19.269Z,3.10
2023-05-04T19:07:47.848Z,3.92
2023-05-04T19:10:16.047Z,3.97
2023-05-04T19:12:44.392Z,4.50
2023-05-04T19:15:13.595Z,2.78
2023-05-04T19:17:43.005Z,2.33
2023-05-04T19:20:11.726Z,2.55
2023-05-04T19:22:39.969Z,2.28
2023-05-04T19:25:11.113Z,2.33
2023-05-04T19:27:40.315Z,2.53
2023-05-04T19:30:09.955Z,4.95
2023-05-04T19:32:39.237Z,3.92
2023-05-04T19:35:09.532Z,2.08
2023-05-04T19:37:37.731Z,3.20
2023-05-04T19:40:06.973Z,3.38
2023-05-04T19:42:35.563Z,4.45
2023-05-04T19:45:05.463Z,2.38
2023-05-04T19:47:34.448Z,2.55
2023-05-04T19:50:02.524Z,2.95
2023-05-04T19:52:34.776Z,2.40
2023-05-04T19:55:03.600Z,1.38
2023-05-04T19:57:31.875Z,1.60
2023-05-04T20:00:00.545Z,1.60
2023-05-04T20:02:28.969Z,3.17
2023-05-04T20:04:57.224Z,1.85
2023-05-04T20:07:27.398Z,1.85
2023-05-04T20:09:56.934Z,2.20
2023-05-04T20:12:26.901Z,1.70
2023-05-04T20:14:55.389Z,1.73
2023-05-04T20:17:24.071Z,1.60
2023-05-04T20:19:52.348Z,3.08
2023-05-04T20:22:20.555Z,2.60
2023-05-04T20:24:48.676Z,2.08
2023-05-04T20:27:19.592Z,1.63
2023-05-04T20:29:47.713Z,1.98
2023-05-04T20:32:17.033Z,2.15
2023-05-04T20:34:45.203Z,3.35
2023-05-04T20:37:13.283Z,1.52
2023-05-04T20:39:41.788Z,1.75
2023-05-04T20:42:10.324Z,2.42
2023-05-04T20:44:39.763Z,2.05
2023-05-04T20:47:08.348Z,2.00
2023-05-04T20:49:36.871Z,2.00
2023-05-04T20:52:05.150Z,3.63
2023-05-04T20:54:33.780Z,2.70
2023-05-04T20:57:02.539Z,2.30
2023-05-04T20:59:31.155Z,2.15
2023-05-04T21:02:00.665Z,3.95
2023-05-04T21:04:29.187Z,1.75
2023-05-04T21:06:58.242Z,2.10
2023-05-04T21:09:27.085Z,2.63
2023-05-04T21:11:55.143Z,2.60
2023-05-04T21:14:23.175Z,2.58
2023-05-04T21:16:51.263Z,2.03
2023-05-04T21:19:20.744Z,2.20
2023-05-04T21:21:49.346Z,2.10
2023-05-04T21:24:17.988Z,2.55
2023-05-04T21:26:46.286Z,1.95
2023-05-04T21:29:15.521Z,2.72
2023-05-04T21:31:43.649Z,2.58
2023-05-04T21:34:12.307Z,2.80
2023-05-04T21:36:44.404Z,2.53
2023-05-04T21:39:13.066Z,3.15
2023-05-04T21:41:41.595Z,3.40
2023-05-04T21:44:09.626Z,3.05
2023-05-04T21:46:38.173Z,2.97
2023-05-04T21:49:06.234Z,3.13
2023-05-04T21:51:34.810Z,3.40
2023-05-04T21:54:04.871Z,3.03
2023-05-04T21:56:33.429Z,2.90
2023-05-04T21:59:01.503Z,3.20
2023-05-04T22:01:29.587Z,6.72
2023-05-04T22:03:58.228Z,9.40
2023-05-04T22:06:27.203Z,11.23
2023-05-04T22:08:55.696Z,9.55
2023-05-04T22:11:25.800Z,9.95
2023-05-04T22:13:54.759Z,7.45
2023-05-04T22:16:22.881Z,7.82
2023-05-04T22:18:51.859Z,4.80
2023-05-04T22:21:19.957Z,4.15
2023-05-04T22:23:48.481Z,3.88
2023-05-04T22:26:17.031Z,3.95
2023-05-04T22:28:46.448Z,3.33
2023-05-04T22:31:14.539Z,2.40
2023-05-04T22:33:43.177Z,2.50
2023-05-04T22:36:13.023Z,2.05
2023-05-04T22:38:41.526Z,1.95
2023-05-04T22:41:09.544Z,1.90
2023-05-04T22:43:38.183Z,2.42
2023-05-04T22:46:07.623Z,2.15
2023-05-04T22:48:36.131Z,2.20
2023-05-04T22:51:04.172Z,2.45
2023-05-04T22:53:32.794Z,1.90
2023-05-04T22:56:00.884Z,1.73
2023-05-04T22:58:29.603Z,1.90
2023-05-04T23:00:57.676Z,1.65
2023-05-04T23:03:27.736Z,2.78
2023-05-04T23:05:59.011Z,2.10
2023-05-04T23:08:27.746Z,1.95
2023-05-04T23:10:56.238Z,1.90
2023-05-04T23:13:24.439Z,2.03
2023-05-04T23:15:53.748Z,1.98
2023-05-04T23:18:21.840Z,1.92
2023-05-04T23:20:51.910Z,2.40
2023-05-04T23:23:19.952Z,2.03
2023-05-04T23:25:48.460Z,2.28
2023-05-04T23:28:16.957Z,1.50
2023-05-04T23:30:45.459Z,2.10
2023-05-04T23:33:13.471Z,2.53
2023-05-04T23:35:42.242Z,2.63
2023-05-04T23:38:12.161Z,1.88
2023-05-04T23:40:40.231Z,2.08
2023-05-04T23:43:08.735Z,3.90
2023-05-04T23:45:36.800Z,1.90
2023-05-04T23:48:06.056Z,3.03
2023-05-04T23:50:34.864Z,5.43
2023-05-04T23:53:02.948Z,1.90
2023-05-04T23:55:32.850Z,2.95
2023-05-04T23:58:01.197Z,1.73
